Time;durP1;ratioP1;P1;durP2;ratioP2;P2;SDS_P1;SDS_P2;PMS_P1;PMS_P2;Temp;Humidity;BMP_temperature;BMP_pressure;BME280_temperature;BME280_humidity;BME280_pressure;Samples;Min_cycle;Max_cycle;Signal;HPM_P1;HPM_P2
2023/05/09 00:02:05;;;;;;;17.60;9.07;;;;;;;;;;738159;188;942480;-70
2023/05/09 00:04:31;;;;;;;18.33;9.63;;;;;;;;;;752341;186;917619;-69
2023/05/09 00:06:56;;;;;;;23.67;10.77;;;;;;;;;;762677;181;917198;-69
2023/05/09 00:09:22;;;;;;;14.03;9.30;;;;;;;;;;759315;181;968981;-69
2023/05/09 00:11:48;;;;;;;14.60;9.93;;;;;;;;;;770877;181;918044;-70
2023/05/09 00:14:14;;;;;;;17.83;10.60;;;;;;;;;;765356;180;1020413;-71
2023/05/09 00:16:40;;;;;;;14.05;9.20;;;;;;;;;;763964;183;920782;-69
2023/05/09 00:19:06;;;;;;;15.83;9.57;;;;;;;;;;766451;181;913541;-70
2023/05/09 00:21:32;;;;;;;17.87;10.07;;;;;;;;;;761483;182;992676;-70
2023/05/09 00:23:59;;;;;;;21.40;10.13;;;;;;;;;;758449;181;934679;-69
2023/05/09 00:26:23;;;;;;;15.33;10.00;;;;;;;;;;754402;181;919801;-70
2023/05/09 00:28:49;;;;;;;19.30;9.90;;;;;;;;;;760500;183;966591;-70
2023/05/09 00:31:15;;;;;;;18.40;11.20;;;;;;;;;;751345;181;917188;-69
2023/05/09 00:33:41;;;;;;;17.10;10.07;;;;;;;;;;755524;184;1203390;-69
2023/05/09 00:36:07;;;;;;;17.47;9.20;;;;;;;;;;766354;180;816911;-69
2023/05/09 00:38:32;;;;;;;15.43;9.60;;;;;;;;;;745683;186;917840;-70
2023/05/09 00:40:58;;;;;;;18.67;10.57;;;;;;;;;;764856;183;933903;-70
2023/05/09 00:43:24;;;;;;;15.13;10.33;;;;;;;;;;768811;183;923909;-70
2023/05/09 00:45:50;;;;;;;17.67;10.90;;;;;;;;;;758517;182;912843;-70
2023/05/09 00:48:16;;;;;;;16.47;11.30;;;;;;;;;;757969;183;914151;-70
2023/05/09 00:50:42;;;;;;;15.23;10.20;;;;;;;;;;756607;183;936819;-70
2023/05/09 00:53:08;;;;;;;16.90;10.23;;;;;;;;;;768863;180;876405;-70
2023/05/09 00:55:33;;;;;;;17.85;11.43;;;;;;;;;;761239;180;953966;-72
2023/05/09 00:57:59;;;;;;;21.20;11.43;;;;;;;;;;766737;180;919719;-70
2023/05/09 01:00:25;;;;;;;18.50;11.23;;;;;;;;;;766218;180;935198;-70
2023/05/09 01:02:51;;;;;;;16.17;10.20;;;;;;;;;;766070;180;919520;-70
2023/05/09 01:05:17;;;;;;;16.33;9.40;;;;;;;;;;761075;181;918543;-70
2023/05/09 01:07:46;;;;;;;14.50;10.17;;;;;;;;;;771888;180;1036281;-70
2023/05/09 01:10:17;;;;;;;18.47;10.70;;;;;;;;;;763218;180;1012713;-70
2023/05/09 01:12:50;;;;;;;19.73;10.47;;;;;;;;;;761104;181;918140;-70
2023/05/09 01:15:20;;;;;;;14.23;9.73;;;;;;;;;;760471;183;942145;-70
2023/05/09 01:17:48;;;;;;;15.97;10.63;;;;;;;;;;755603;184;918857;-70
2023/05/09 01:20:24;;;;;;;14.90;9.87;;;;;;;;;;756286;184;907933;-70
2023/05/09 01:22:51;;;;;;;17.23;11.03;;;;;;;;;;765905;181;921309;-70
2023/05/09 01:25:18;;;;;;;15.50;10.93;;;;;;;;;;755549;180;905785;-69
2023/05/09 01:27:47;;;;;;;14.27;10.30;;;;;;;;;;754516;183;913017;-70
2023/05/09 01:30:12;;;;;;;17.90;10.87;;;;;;;;;;756910;183;918276;-69
2023/05/09 01:32:38;;;;;;;18.13;10.67;;;;;;;;;;753046;183;820964;-70
2023/05/09 01:35:05;;;;;;;16.48;9.98;;;;;;;;;;753120;183;938428;-69
2023/05/09 01:37:31;;;;;;;17.10;10.03;;;;;;;;;;772364;180;886338;-69
2023/05/09 01:39:56;;;;;;;17.43;10.57;;;;;;;;;;768243;183;915795;-70
2023/05/09 01:42:22;;;;;;;16.80;9.53;;;;;;;;;;759156;183;916502;-70
2023/05/09 01:44:48;;;;;;;18.20;9.87;;;;;;;;;;760318;183;919749;-71
2023/05/09 01:47:15;;;;;;;14.77;10.73;;;;;;;;;;767680;182;1017555;-70
2023/05/09 01:49:40;;;;;;;17.83;11.63;;;;;;;;;;759331;183;920237;-70
2023/05/09 01:52:07;;;;;;;18.60;11.37;;;;;;;;;;751102;183;882926;-70
2023/05/09 01:54:32;;;;;;;19.30;11.80;;;;;;;;;;758166;183;899329;-70
2023/05/09 01:56:58;;;;;;;23.53;12.50;;;;;;;;;;768131;181;908483;-72
2023/05/09 01:59:25;;;;;;;21.50;13.27;;;;;;;;;;767542;180;914714;-70
2023/05/09 02:01:51;;;;;;;17.77;11.47;;;;;;;;;;772685;180;901186;-70
2023/05/09 02:04:16;;;;;;;24.83;10.67;;;;;;;;;;768536;180;813293;-69
2023/05/09 02:06:43;;;;;;;16.23;10.10;;;;;;;;;;763469;180;931744;-70
2023/05/09 02:09:08;;;;;;;18.90;10.18;;;;;;;;;;767039;182;889420;-70
2023/05/09 02:11:33;;;;;;;21.53;13.30;;;;;;;;;;765968;180;899884;-70
2023/05/09 02:13:59;;;;;;;23.57;12.73;;;;;;;;;;763333;180;861111;-69
2023/05/09 02:16:25;;;;;;;25.37;12.37;;;;;;;;;;764154;181;910146;-73
2023/05/09 02:18:51;;;;;;;21.50;12.07;;;;;;;;;;769820;180;815247;-69
2023/05/09 02:21:17;;;;;;;21.17;11.83;;;;;;;;;;759077;181;919422;-70
2023/05/09 02:23:43;;;;;;;22.80;14.03;;;;;;;;;;730428;190;908012;-70
2023/05/09 02:26:09;;;;;;;23.95;13.48;;;;;;;;;;768662;182;910170;-70
2023/05/09 02:28:34;;;;;;;25.47;13.53;;;;;;;;;;766354;180;918832;-70
2023/05/09 02:31:00;;;;;;;26.00;14.33;;;;;;;;;;765690;180;941506;-70
2023/05/09 02:33:26;;;;;;;21.47;13.73;;;;;;;;;;770266;180;915112;-70
2023/05/09 02:35:52;;;;;;;21.60;12.70;;;;;;;;;;758788;179;919031;-70
2023/05/09 02:38:18;;;;;;;20.70;12.80;;;;;;;;;;760447;181;916943;-70
2023/05/09 02:40:44;;;;;;;24.13;12.30;;;;;;;;;;759725;181;992325;-71
2023/05/09 02:43:10;;;;;;;19.60;11.80;;;;;;;;;;753200;184;816232;-69
2023/05/09 02:45:35;;;;;;;18.60;11.67;;;;;;;;;;759762;183;916476;-70
2023/05/09 02:48:01;;;;;;;19.97;10.67;;;;;;;;;;759696;181;918400;-70
2023/05/09 02:50:27;;;;;;;27.70;12.10;;;;;;;;;;762601;183;855477;-70
2023/05/09 02:52:53;;;;;;;22.10;13.70;;;;;;;;;;766247;180;921499;-70
2023/05/09 02:55:19;;;;;;;19.63;11.73;;;;;;;;;;764102;180;915385;-70
2023/05/09 02:57:45;;;;;;;24.02;13.62;;;;;;;;;;775882;181;781508;-70
2023/05/09 03:00:11;;;;;;;17.93;12.50;;;;;;;;;;766012;180;913981;-69
2023/05/09 03:02:37;;;;;;;18.27;10.83;;;;;;;;;;750532;183;935924;-70
2023/05/09 03:05:03;;;;;;;16.12;11.82;;;;;;;;;;759636;184;839957;-70
2023/05/09 03:07:29;;;;;;;19.25;12.60;;;;;;;;;;771230;182;917524;-70
2023/05/09 03:09:55;;;;;;;17.47;11.70;;;;;;;;;;749643;182;924402;-69
2023/05/09 03:12:21;;;;;;;16.70;10.67;;;;;;;;;;762412;180;918543;-71
2023/05/09 03:14:47;;;;;;;23.37;14.53;;;;;;;;;;770065;180;806641;-69
2023/05/09 03:17:19;;;;;;;17.80;13.50;;;;;;;;;;749021;186;1056897;-70
2023/05/09 03:19:39;;;;;;;23.50;12.37;;;;;;;;;;749260;186;897757;-70
2023/05/09 03:22:05;;;;;;;16.47;11.03;;;;;;;;;;771297;182;939524;-69
2023/05/09 03:24:31;;;;;;;16.80;11.57;;;;;;;;;;766661;180;811785;-70
2023/05/09 03:26:57;;;;;;;19.10;12.63;;;;;;;;;;759359;180;920152;-69
2023/05/09 03:29:23;;;;;;;17.97;12.07;;;;;;;;;;764361;181;915998;-70
2023/05/09 03:31:49;;;;;;;18.00;11.57;;;;;;;;;;756630;183;896906;-70
2023/05/09 03:34:15;;;;;;;17.03;11.33;;;;;;;;;;764173;180;822611;-70
2023/05/09 03:36:41;;;;;;;16.03;11.60;;;;;;;;;;758513;180;934306;-70
2023/05/09 03:39:07;;;;;;;20.95;12.23;;;;;;;;;;759682;183;919437;-70
2023/05/09 03:41:34;;;;;;;20.50;12.20;;;;;;;;;;763609;181;918410;-69
2023/05/09 03:43:58;;;;;;;20.37;10.93;;;;;;;;;;760202;183;919255;-70
2023/05/09 03:46:24;;;;;;;22.50;12.50;;;;;;;;;;767920;180;913760;-70
2023/05/09 03:48:50;;;;;;;18.90;12.37;;;;;;;;;;764732;180;914609;-70
2023/05/09 03:51:16;;;;;;;21.40;11.73;;;;;;;;;;764419;181;910440;-69
2023/05/09 03:53:42;;;;;;;17.30;11.63;;;;;;;;;;761254;183;916693;-70
2023/05/09 03:56:07;;;;;;;16.60;11.97;;;;;;;;;;758603;181;823672;-71
2023/05/09 03:58:33;;;;;;;20.10;16.10;;;;;;;;;;756314;181;917352;-70
2023/05/09 04:00:59;;;;;;;21.27;13.80;;;;;;;;;;767130;181;857254;-71
2023/05/09 04:03:25;;;;;;;21.73;13.70;;;;;;;;;;772006;180;841594;-69
2023/05/09 04:05:51;;;;;;;19.10;13.47;;;;;;;;;;758665;183;920877;-70
2023/05/09 04:08:17;;;;;;;22.87;14.77;;;;;;;;;;762288;181;849898;-70
2023/05/09 04:10:43;;;;;;;24.20;14.37;;;;;;;;;;762517;181;917885;-70
2023/05/09 04:13:10;;;;;;;22.15;15.73;;;;;;;;;;754468;181;1021259;-70
2023/05/09 04:15:35;;;;;;;27.10;14.03;;;;;;;;;;760499;181;749126;-70
2023/05/09 04:18:01;;;;;;;21.53;16.10;;;;;;;;;;769287;181;914425;-70
2023/05/09 04:20:26;;;;;;;17.90;14.73;;;;;;;;;;761365;180;913479;-70
2023/05/09 04:22:52;;;;;;;32.43;15.93;;;;;;;;;;767475;180;1020165;-70
2023/05/09 04:25:19;;;;;;;24.17;15.37;;;;;;;;;;753942;184;642236;-70
2023/05/09 04:27:44;;;;;;;22.00;14.70;;;;;;;;;;754325;183;815756;-70
2023/05/09 04:30:10;;;;;;;28.23;14.18;;;;;;;;;;762368;183;1019330;-70
2023/05/09 04:32:37;;;;;;;22.40;13.53;;;;;;;;;;753383;183;921344;-71
2023/05/09 04:35:03;;;;;;;21.03;14.20;;;;;;;;;;760604;183;815462;-71
2023/05/09 04:37:28;;;;;;;20.57;12.07;;;;;;;;;;763816;183;919709;-70
2023/05/09 04:39:54;;;;;;;18.73;12.98;;;;;;;;;;756739;183;915758;-71
2023/05/09 04:42:20;;;;;;;16.10;12.80;;;;;;;;;;769818;181;819441;-72
2023/05/09 04:44:46;;;;;;;17.70;13.15;;;;;;;;;;764505;180;1022335;-71
2023/05/09 04:47:11;;;;;;;17.03;11.83;;;;;;;;;;761937;181;918455;-71
2023/05/09 04:49:37;;;;;;;21.65;13.27;;;;;;;;;;758503;183;1023010;-70
2023/05/09 04:52:03;;;;;;;21.00;13.00;;;;;;;;;;733501;188;918023;-71
2023/05/09 04:54:29;;;;;;;15.60;10.47;;;;;;;;;;765744;181;920045;-71
2023/05/09 04:56:55;;;;;;;16.93;11.77;;;;;;;;;;765881;183;823956;-71
2023/05/09 04:59:21;;;;;;;18.63;11.90;;;;;;;;;;772015;180;816069;-71
2023/05/09 05:01:47;;;;;;;23.10;11.37;;;;;;;;;;765758;181;815365;-71
2023/05/09 05:04:13;;;;;;;16.80;11.57;;;;;;;;;;759466;181;918248;-71
2023/05/09 05:06:38;;;;;;;14.67;11.10;;;;;;;;;;766787;181;912788;-70
2023/05/09 05:09:04;;;;;;;15.10;11.90;;;;;;;;;;758913;181;921546;-71
2023/05/09 05:11:30;;;;;;;17.00;12.00;;;;;;;;;;769799;180;922442;-71
2023/05/09 05:13:56;;;;;;;16.37;11.90;;;;;;;;;;768428;181;913795;-71
2023/05/09 05:16:22;;;;;;;15.43;10.40;;;;;;;;;;758070;182;917524;-71
2023/05/09 05:18:48;;;;;;;17.00;11.82;;;;;;;;;;765952;183;914243;-71
2023/05/09 05:21:15;;;;;;;17.37;11.07;;;;;;;;;;768745;183;916453;-71
2023/05/09 05:23:39;;;;;;;17.00;11.43;;;;;;;;;;759970;182;813791;-71
2023/05/09 05:26:06;;;;;;;15.87;10.83;;;;;;;;;;756694;181;929641;-71
2023/05/09 05:28:31;;;;;;;17.40;11.30;;;;;;;;;;765580;183;915628;-71
2023/05/09 05:30:57;;;;;;;18.53;11.90;;;;;;;;;;772200;181;776079;-71
2023/05/09 05:33:24;;;;;;;19.27;11.33;;;;;;;;;;767492;180;893827;-70
2023/05/09 05:35:50;;;;;;;16.80;10.13;;;;;;;;;;765872;180;922104;-71
2023/05/09 05:38:15;;;;;;;15.10;10.80;;;;;;;;;;763110;180;906288;-72
2023/05/09 05:40:41;;;;;;;16.37;11.07;;;;;;;;;;766441;180;942637;-72
2023/05/09 05:43:07;;;;;;;15.83;10.47;;;;;;;;;;753505;180;928989;-71
2023/05/09 05:45:33;;;;;;;17.03;11.30;;;;;;;;;;745450;189;939443;-71
2023/05/09 05:48:01;;;;;;;17.43;11.70;;;;;;;;;;733878;189;1044655;-71
2023/05/09 05:50:25;;;;;;;15.80;10.43;;;;;;;;;;732984;186;917792;-71
2023/05/09 05:52:51;;;;;;;14.97;10.33;;;;;;;;;;761164;180;923892;-73
2023/05/09 05:55:17;;;;;;;15.90;10.60;;;;;;;;;;767112;180;1018537;-73
2023/05/09 05:57:43;;;;;;;15.97;9.40;;;;;;;;;;764180;181;902826;-71
2023/05/09 06:00:10;;;;;;;17.53;12.27;;;;;;;;;;759416;181;917332;-72
2023/05/09 06:02:36;;;;;;;21.73;12.80;;;;;;;;;;766545;182;809694;-72
2023/05/09 06:05:02;;;;;;;16.53;11.67;;;;;;;;;;767771;181;919133;-72
2023/05/09 06:07:28;;;;;;;15.47;10.20;;;;;;;;;;762713;181;919169;-71
2023/05/09 06:09:53;;;;;;;20.73;13.23;;;;;;;;;;770334;181;933564;-72
2023/05/09 06:12:19;;;;;;;18.20;11.23;;;;;;;;;;755837;181;919251;-71
2023/05/09 06:14:45;;;;;;;20.50;12.10;;;;;;;;;;754057;184;917319;-71
2023/05/09 06:17:11;;;;;;;15.40;11.30;;;;;;;;;;754706;184;917469;-72
2023/05/09 06:19:37;;;;;;;16.60;10.33;;;;;;;;;;779226;180;908964;-71
2023/05/09 06:22:03;;;;;;;14.80;11.50;;;;;;;;;;758211;181;841404;-71
2023/05/09 06:24:29;;;;;;;11.67;9.00;;;;;;;;;;743303;188;919576;-71
2023/05/09 06:26:55;;;;;;;17.03;10.50;;;;;;;;;;749367;188;913978;-71
2023/05/09 06:29:20;;;;;;;25.37;11.73;;;;;;;;;;747619;186;919491;-71
2023/05/09 06:31:46;;;;;;;17.13;11.30;;;;;;;;;;743995;187;866278;-71
2023/05/09 06:34:12;;;;;;;16.20;9.00;;;;;;;;;;774487;183;919483;-71
2023/05/09 06:36:38;;;;;;;14.20;9.80;;;;;;;;;;762895;183;819353;-71
2023/05/09 06:39:04;;;;;;;14.73;9.53;;;;;;;;;;766154;181;920873;-72
2023/05/09 06:41:30;;;;;;;19.40;9.00;;;;;;;;;;769477;183;916283;-70
2023/05/09 06:43:56;;;;;;;11.87;9.63;;;;;;;;;;772633;180;938019;-71
2023/05/09 06:46:21;;;;;;;13.87;9.30;;;;;;;;;;766643;180;917814;-71
2023/05/09 06:48:47;;;;;;;14.43;7.90;;;;;;;;;;768204;181;919595;-71
2023/05/09 06:51:13;;;;;;;14.30;9.03;;;;;;;;;;765987;180;916858;-70
2023/05/09 06:53:39;;;;;;;13.70;9.83;;;;;;;;;;762705;180;919288;-72
2023/05/09 06:56:05;;;;;;;16.83;10.15;;;;;;;;;;759023;180;918173;-71
2023/05/09 06:58:31;;;;;;;19.83;9.40;;;;;;;;;;769279;180;913605;-71
2023/05/09 07:00:57;;;;;;;13.33;7.77;;;;;;;;;;766149;180;920268;-71
2023/05/09 07:03:22;;;;;;;14.13;8.65;;;;;;;;;;766690;181;920561;-71
2023/05/09 07:05:48;;;;;;;13.27;9.43;;;;;;;;;;764420;181;919683;-71
2023/05/09 07:08:14;;;;;;;14.40;9.90;;;;;;;;;;752247;183;917473;-70
2023/05/09 07:10:40;;;;;;;13.70;9.77;;;;;;;;;;759776;183;923346;-71
2023/05/09 07:13:06;;;;;;;17.17;10.37;;;;;;;;;;765372;181;888457;-71
2023/05/09 07:15:32;;;;;;;12.50;8.60;;;;;;;;;;778765;178;927312;-71
2023/05/09 07:17:58;;;;;;;16.30;10.40;;;;;;;;;;760238;183;953863;-71
2023/05/09 07:20:24;;;;;;;15.23;10.07;;;;;;;;;;750321;184;937290;-71
2023/05/09 07:22:49;;;;;;;15.40;9.53;;;;;;;;;;760680;181;918955;-72
2023/05/09 07:25:15;;;;;;;17.67;9.50;;;;;;;;;;762203;180;919975;-71
2023/05/09 07:27:41;;;;;;;13.80;9.60;;;;;;;;;;758580;183;918607;-71
2023/05/09 07:30:08;;;;;;;15.53;9.60;;;;;;;;;;770561;180;819405;-70
2023/05/09 07:32:33;;;;;;;15.53;9.27;;;;;;;;;;757290;183;919323;-71
2023/05/09 07:34:59;;;;;;;13.20;8.57;;;;;;;;;;760498;180;910181;-71
2023/05/09 07:37:25;;;;;;;13.00;8.85;;;;;;;;;;762211;181;813473;-72
2023/05/09 07:39:51;;;;;;;11.73;9.00;;;;;;;;;;767565;181;988456;-71
2023/05/09 07:42:17;;;;;;;11.87;8.10;;;;;;;;;;755114;180;871478;-72
2023/05/09 07:44:43;;;;;;;10.50;7.97;;;;;;;;;;762751;183;917662;-71
2023/05/09 07:47:09;;;;;;;9.63;6.93;;;;;;;;;;757055;181;918361;-71
2023/05/09 07:49:34;;;;;;;13.63;7.80;;;;;;;;;;762034;181;636154;-72
2023/05/09 07:52:00;;;;;;;14.30;7.93;;;;;;;;;;765819;180;906587;-72
2023/05/09 07:54:26;;;;;;;7.90;6.20;;;;;;;;;;770095;181;921913;-72
2023/05/09 07:56:52;;;;;;;10.60;6.77;;;;;;;;;;762417;183;911878;-71
2023/05/09 07:59:18;;;;;;;10.53;7.27;;;;;;;;;;762192;182;919008;-71
2023/05/09 08:01:44;;;;;;;10.27;5.83;;;;;;;;;;762410;181;919685;-71
2023/05/09 08:04:10;;;;;;;12.23;6.90;;;;;;;;;;752427;181;1021182;-71
2023/05/09 08:06:36;;;;;;;13.60;6.43;;;;;;;;;;759330;180;919484;-71
2023/05/09 08:09:01;;;;;;;7.70;5.90;;;;;;;;;;755624;184;919197;-73
2023/05/09 08:11:27;;;;;;;15.10;6.40;;;;;;;;;;762838;183;815797;-70
2023/05/09 08:13:53;;;;;;;13.83;8.73;;;;;;;;;;760537;181;828131;-71
2023/05/09 08:16:19;;;;;;;10.23;5.93;;;;;;;;;;776254;176;914693;-72
2023/05/09 08:18:45;;;;;;;7.20;5.50;;;;;;;;;;764363;183;917293;-71
2023/05/09 08:21:11;;;;;;;7.50;5.40;;;;;;;;;;763070;182;916179;-72
2023/05/09 08:23:37;;;;;;;8.73;5.67;;;;;;;;;;766521;181;918611;-71
2023/05/09 08:26:03;;;;;;;7.80;5.70;;;;;;;;;;759453;184;816340;-71
2023/05/09 08:28:28;;;;;;;11.50;5.90;;;;;;;;;;763553;181;920113;-70
2023/05/09 08:30:55;;;;;;;10.00;6.27;;;;;;;;;;759989;181;918623;-71
2023/05/09 08:33:20;;;;;;;8.27;5.50;;;;;;;;;;755696;181;919299;-72
2023/05/09 08:35:53;;;;;;;13.93;5.80;;;;;;;;;;772541;183;918798;-71
2023/05/09 08:38:19;;;;;;;6.70;4.93;;;;;;;;;;752944;181;918676;-71
2023/05/09 08:40:45;;;;;;;8.70;5.83;;;;;;;;;;759977;181;918412;-71
2023/05/09 08:43:11;;;;;;;6.90;5.60;;;;;;;;;;765719;183;918217;-70
2023/05/09 08:45:39;;;;;;;7.33;4.90;;;;;;;;;;755479;184;919222;-70
2023/05/09 08:48:05;;;;;;;9.87;5.73;;;;;;;;;;761831;180;669785;-71
2023/05/09 08:50:31;;;;;;;8.07;5.20;;;;;;;;;;766447;181;835957;-71
2023/05/09 08:52:57;;;;;;;7.77;5.20;;;;;;;;;;767537;181;912672;-71
2023/05/09 08:55:23;;;;;;;8.47;5.60;;;;;;;;;;753202;183;1024996;-72
2023/05/09 08:57:48;;;;;;;7.30;5.50;;;;;;;;;;755006;181;920646;-72
2023/05/09 09:00:15;;;;;;;9.33;5.00;;;;;;;;;;772454;180;919619;-71
2023/05/09 09:02:41;;;;;;;6.87;4.53;;;;;;;;;;765077;183;919378;-71
2023/05/09 09:05:07;;;;;;;8.10;4.80;;;;;;;;;;757301;181;1071795;-72
2023/05/09 09:07:33;;;;;;;12.33;4.57;;;;;;;;;;770038;180;919455;-71
2023/05/09 09:09:59;;;;;;;7.50;5.20;;;;;;;;;;744679;186;918521;-71
2023/05/09 09:12:25;;;;;;;8.97;4.90;;;;;;;;;;733470;189;920721;-71
2023/05/09 09:14:52;;;;;;;12.15;5.05;;;;;;;;;;761315;183;919137;-72
2023/05/09 09:17:17;;;;;;;6.93;4.57;;;;;;;;;;765427;183;1022541;-72
2023/05/09 09:19:43;;;;;;;8.80;4.67;;;;;;;;;;759691;181;824884;-71
2023/05/09 09:22:09;;;;;;;5.33;4.03;;;;;;;;;;767830;180;815149;-72
2023/05/09 09:24:35;;;;;;;10.37;4.43;;;;;;;;;;763205;183;918788;-71
2023/05/09 09:27:01;;;;;;;6.00;4.70;;;;;;;;;;742642;187;931678;-72
2023/05/09 09:29:27;;;;;;;8.95;4.80;;;;;;;;;;735797;188;917688;-72
2023/05/09 09:31:53;;;;;;;6.60;4.00;;;;;;;;;;743838;189;917718;-71
2023/05/09 09:34:18;;;;;;;6.73;5.13;;;;;;;;;;753678;181;919752;-71
2023/05/09 09:36:45;;;;;;;9.00;4.90;;;;;;;;;;763621;183;920338;-71
2023/05/09 09:39:10;;;;;;;6.73;4.80;;;;;;;;;;763998;183;907011;-73
2023/05/09 09:41:36;;;;;;;6.27;4.73;;;;;;;;;;771207;181;813329;-71
2023/05/09 09:44:05;;;;;;;5.30;4.40;;;;;;;;;;769126;181;816789;-71
2023/05/09 09:46:31;;;;;;;5.80;4.53;;;;;;;;;;761207;181;910357;-72
2023/05/09 09:48:57;;;;;;;6.93;4.67;;;;;;;;;;763181;181;920257;-71
2023/05/09 09:51:22;;;;;;;7.73;4.47;;;;;;;;;;756885;181;927129;-70
2023/05/09 09:53:48;;;;;;;5.37;4.30;;;;;;;;;;760230;181;914181;-71
2023/05/09 09:56:14;;;;;;;10.20;4.60;;;;;;;;;;766629;180;912110;-71
2023/05/09 09:58:40;;;;;;;7.80;5.10;;;;;;;;;;759717;181;918159;-71
2023/05/09 10:01:06;;;;;;;6.60;4.60;;;;;;;;;;753136;184;956941;-72
2023/05/09 10:03:34;;;;;;;8.07;5.93;;;;;;;;;;750994;184;911898;-73
2023/05/09 10:06:00;;;;;;;5.80;4.30;;;;;;;;;;759708;182;811243;-71
2023/05/09 10:08:26;;;;;;;12.50;6.10;;;;;;;;;;737640;187;918518;-72
2023/05/09 10:10:52;;;;;;;5.37;4.30;;;;;;;;;;762406;183;979504;-72
2023/05/09 10:13:18;;;;;;;8.20;6.00;;;;;;;;;;759011;183;912954;-71
2023/05/09 10:15:44;;;;;;;6.87;4.87;;;;;;;;;;763736;181;913582;-72
2023/05/09 10:18:10;;;;;;;7.20;5.37;;;;;;;;;;762370;180;922318;-71
2023/05/09 10:20:38;;;;;;;6.73;4.73;;;;;;;;;;766987;180;917162;-72
2023/05/09 10:23:02;;;;;;;7.10;5.30;;;;;;;;;;760666;183;919518;-72
2023/05/09 10:25:27;;;;;;;6.63;5.40;;;;;;;;;;763882;182;920142;-71
2023/05/09 10:27:53;;;;;;;6.55;4.72;;;;;;;;;;768321;180;916026;-72
2023/05/09 10:30:19;;;;;;;6.10;4.77;;;;;;;;;;755268;186;813556;-71
2023/05/09 10:33:03;;;;;;;5.23;4.60;;;;;;;;;;762429;180;915814;-70
2023/05/09 10:35:29;;;;;;;6.20;5.00;;;;;;;;;;767100;180;917209;-71
2023/05/09 10:37:56;;;;;;;6.00;4.43;;;;;;;;;;764879;180;813359;-71
2023/05/09 10:40:21;;;;;;;8.53;5.07;;;;;;;;;;752382;184;854913;-71
2023/05/09 10:42:47;;;;;;;6.03;4.60;;;;;;;;;;767081;180;915446;-72
2023/05/09 10:45:13;;;;;;;5.77;4.67;;;;;;;;;;758828;180;841431;-71
2023/05/09 10:47:38;;;;;;;5.40;4.70;;;;;;;;;;758437;184;915945;-71
2023/05/09 10:50:06;;;;;;;7.20;4.67;;;;;;;;;;760125;181;915370;-72
2023/05/09 10:52:32;;;;;;;6.75;4.45;;;;;;;;;;744307;185;914380;-71
2023/05/09 10:54:58;;;;;;;7.10;4.70;;;;;;;;;;766726;180;829966;-72
2023/05/09 10:57:23;;;;;;;7.63;5.03;;;;;;;;;;757491;183;915877;-71
2023/05/09 10:59:49;;;;;;;7.40;5.67;;;;;;;;;;756759;181;983546;-71
2023/05/09 11:02:15;;;;;;;9.37;5.10;;;;;;;;;;765250;181;816371;-72
2023/05/09 11:04:41;;;;;;;6.00;4.57;;;;;;;;;;769839;181;810660;-71
2023/05/09 11:07:12;;;;;;;8.23;4.67;;;;;;;;;;760972;180;918958;-71
2023/05/09 11:09:40;;;;;;;6.23;4.70;;;;;;;;;;764549;180;816786;-71
2023/05/09 11:12:08;;;;;;;6.05;4.37;;;;;;;;;;766146;180;816489;-73
2023/05/09 11:14:41;;;;;;;6.07;4.60;;;;;;;;;;770163;183;918720;-69
2023/05/09 11:17:07;;;;;;;8.03;5.43;;;;;;;;;;746288;184;929395;-71
2023/05/09 11:19:34;;;;;;;5.93;4.82;;;;;;;;;;751062;185;950093;-71
2023/05/09 11:22:02;;;;;;;7.60;4.90;;;;;;;;;;767089;181;918961;-72
2023/05/09 11:24:29;;;;;;;9.53;5.73;;;;;;;;;;762199;183;825188;-71
2023/05/09 11:26:52;;;;;;;5.47;4.27;;;;;;;;;;762912;183;919123;-71
2023/05/09 11:29:18;;;;;;;9.20;5.00;;;;;;;;;;760753;181;919081;-72
2023/05/09 11:31:50;;;;;;;6.43;4.77;;;;;;;;;;770996;180;954374;-71
2023/05/09 11:34:16;;;;;;;6.23;4.30;;;;;;;;;;767933;180;819679;-71
2023/05/09 11:36:42;;;;;;;7.00;4.60;;;;;;;;;;763412;180;1225875;-72
2023/05/09 11:39:08;;;;;;;7.13;5.30;;;;;;;;;;756957;183;917981;-70
2023/05/09 11:41:38;;;;;;;6.33;4.70;;;;;;;;;;771113;179;819190;-71
2023/05/09 11:44:02;;;;;;;10.20;5.60;;;;;;;;;;760518;183;1225269;-71
2023/05/09 11:46:28;;;;;;;8.33;5.03;;;;;;;;;;756413;180;1042182;-71
2023/05/09 11:48:54;;;;;;;8.40;4.23;;;;;;;;;;768375;180;850244;-71
2023/05/09 11:51:20;;;;;;;8.23;4.90;;;;;;;;;;761638;180;885345;-71
2023/05/09 11:53:48;;;;;;;6.23;4.53;;;;;;;;;;763439;181;918466;-71
2023/05/09 11:56:14;;;;;;;5.60;4.27;;;;;;;;;;768298;180;918568;-70
2023/05/09 11:58:41;;;;;;;5.90;4.50;;;;;;;;;;753599;185;817626;-71
2023/05/09 12:01:06;;;;;;;6.33;4.53;;;;;;;;;;753827;183;919344;-70
2023/05/09 12:03:32;;;;;;;5.80;4.07;;;;;;;;;;757744;181;921966;-72
2023/05/09 12:05:58;;;;;;;7.17;4.37;;;;;;;;;;762005;181;800917;-71
2023/05/09 12:08:24;;;;;;;8.18;4.45;;;;;;;;;;756210;180;1016822;-70
2023/05/09 12:10:50;;;;;;;6.83;4.63;;;;;;;;;;763822;181;952209;-71
2023/05/09 12:13:16;;;;;;;8.03;4.30;;;;;;;;;;765003;183;815559;-72
2023/05/09 12:15:41;;;;;;;12.13;4.73;;;;;;;;;;759309;182;825745;-70
2023/05/09 12:18:08;;;;;;;6.70;4.40;;;;;;;;;;754622;181;863196;-70
2023/05/09 12:20:41;;;;;;;11.40;4.53;;;;;;;;;;758415;180;880740;-71
2023/05/09 12:23:07;;;;;;;6.20;3.77;;;;;;;;;;757250;183;816755;-71
2023/05/09 12:25:33;;;;;;;7.60;4.00;;;;;;;;;;756752;183;836299;-71
2023/05/09 12:27:59;;;;;;;7.37;4.83;;;;;;;;;;755962;183;920695;-71
2023/05/09 12:30:25;;;;;;;7.73;4.67;;;;;;;;;;767341;180;919023;-70
2023/05/09 12:32:51;;;;;;;5.03;4.47;;;;;;;;;;755864;181;915184;-70
2023/05/09 12:35:17;;;;;;;5.93;4.40;;;;;;;;;;767378;181;816472;-72
2023/05/09 12:37:42;;;;;;;8.83;4.77;;;;;;;;;;765314;181;919508;-71
2023/05/09 12:40:11;;;;;;;7.50;4.73;;;;;;;;;;762505;181;918799;-72
2023/05/09 12:42:34;;;;;;;6.40;4.60;;;;;;;;;;770784;179;807575;-72
2023/05/09 12:45:00;;;;;;;6.20;4.07;;;;;;;;;;760955;181;915487;-71
2023/05/09 12:47:27;;;;;;;8.10;4.93;;;;;;;;;;763136;180;901035;-71
2023/05/09 12:49:53;;;;;;;4.97;4.43;;;;;;;;;;761872;180;816026;-72
2023/05/09 12:52:19;;;;;;;5.87;4.47;;;;;;;;;;760133;181;891095;-71
2023/05/09 12:54:44;;;;;;;5.40;4.60;;;;;;;;;;765370;183;918985;-72
2023/05/09 12:57:10;;;;;;;6.10;4.27;;;;;;;;;;758482;183;919015;-72
2023/05/09 12:59:39;;;;;;;6.27;3.47;;;;;;;;;;758288;183;918053;-73
2023/05/09 13:02:02;;;;;;;8.53;4.90;;;;;;;;;;767494;183;730643;-72
2023/05/09 13:04:28;;;;;;;4.70;3.83;;;;;;;;;;763800;181;815074;-71
2023/05/09 13:06:54;;;;;;;15.57;4.73;;;;;;;;;;765347;181;917288;-72
2023/05/09 13:09:19;;;;;;;6.13;4.10;;;;;;;;;;761274;182;918998;-73
2023/05/09 13:11:46;;;;;;;7.20;4.10;;;;;;;;;;763783;179;909464;-72
2023/05/09 13:14:11;;;;;;;7.13;4.20;;;;;;;;;;754813;181;1020036;-72
2023/05/09 13:16:37;;;;;;;7.13;4.20;;;;;;;;;;757814;181;918435;-72
2023/05/09 13:19:04;;;;;;;8.60;5.50;;;;;;;;;;761104;181;918867;-71
2023/05/09 13:21:29;;;;;;;5.10;4.33;;;;;;;;;;760844;181;814117;-72
2023/05/09 13:23:55;;;;;;;7.17;4.03;;;;;;;;;;757522;183;919186;-72
2023/05/09 13:26:21;;;;;;;6.63;4.43;;;;;;;;;;756271;183;914371;-72
2023/05/09 13:28:46;;;;;;;5.90;4.17;;;;;;;;;;760091;180;919292;-71
2023/05/09 13:31:12;;;;;;;6.53;4.43;;;;;;;;;;767788;180;918084;-72
2023/05/09 13:33:38;;;;;;;6.65;4.18;;;;;;;;;;756676;183;916503;-72
2023/05/09 13:36:05;;;;;;;7.33;4.20;;;;;;;;;;759737;183;915574;-72
2023/05/09 13:38:31;;;;;;;9.27;4.27;;;;;;;;;;755923;181;918825;-71
2023/05/09 13:40:56;;;;;;;5.93;3.87;;;;;;;;;;761578;180;880269;-72
2023/05/09 13:43:21;;;;;;;9.10;4.90;;;;;;;;;;761609;181;817009;-72
2023/05/09 13:45:47;;;;;;;7.40;4.20;;;;;;;;;;763703;180;919651;-71
2023/05/09 13:48:13;;;;;;;6.15;4.75;;;;;;;;;;764895;181;921243;-72
2023/05/09 13:50:39;;;;;;;5.57;4.13;;;;;;;;;;765146;180;917381;-72
2023/05/09 13:53:05;;;;;;;7.35;4.70;;;;;;;;;;766385;181;919344;-72
2023/05/09 13:55:31;;;;;;;11.00;4.27;;;;;;;;;;762419;182;917423;-70
2023/05/09 13:57:57;;;;;;;4.97;3.57;;;;;;;;;;769525;180;815763;-72
2023/05/09 14:00:25;;;;;;;4.83;3.97;;;;;;;;;;764392;180;1224917;-71
2023/05/09 14:02:49;;;;;;;8.40;4.50;;;;;;;;;;762211;180;918070;-72
2023/05/09 14:05:15;;;;;;;6.30;3.57;;;;;;;;;;762933;180;918342;-72
2023/05/09 14:07:41;;;;;;;5.67;4.20;;;;;;;;;;760129;183;921683;-71
2023/05/09 14:10:07;;;;;;;6.00;4.40;;;;;;;;;;756418;181;1019469;-71